Wetterdaten: Woche 13.09.10 - 19.09.10 (KW37)
Datum Zeit Temperatur Luftfeuchte Luftdruck Niederschlag Wind Richtung Sonnenschein Solar Taupunkt Windchill Windben
13.09.2010 00:00 14.6 C 92 % 1022.7 hPa 0.0 l/m 2.1 km/h (1 Bft) S-SO 0.00 h 0 W/m 13.3 C 14.6 C 5.0 km/h (1 Bft)
13.09.2010 01:00 14.4 C 92 % 1022.7 hPa 0.0 l/m 1.8 km/h (1 Bft) SO 0.00 h 0 W/m 13.1 C 14.4 C 3.4 km/h (1 Bft)
13.09.2010 02:00 14.0 C 94 % 1022.7 hPa 0.2 l/m 2.7 km/h (1 Bft) W-NW 0.00 h 0 W/m 13.1 C 14.0 C 5.7 km/h (1 Bft)
13.09.2010 03:00 14.0 C 94 % 1022.8 hPa 0.0 l/m 0.9 km/h (0 Bft) O-SO 0.00 h 0 W/m 13.0 C 14.0 C 1.9 km/h (1 Bft)
13.09.2010 04:00 13.8 C 94 % 1023.1 hPa 0.0 l/m 0.3 km/h (0 Bft) W-NW 0.00 h 0 W/m 12.8 C 13.8 C 1.0 km/h (0 Bft)
13.09.2010 05:00 13.0 C 95 % 1023.3 hPa 0.0 l/m 1.0 km/h (0 Bft) W 0.00 h 0 W/m 12.2 C 13.0 C 2.4 km/h (1 Bft)
13.09.2010 06:00 12.6 C 96 % 1023.8 hPa 0.2 l/m 1.2 km/h (1 Bft) W-NW 0.00 h 0 W/m 11.9 C 12.6 C 2.7 km/h (1 Bft)
13.09.2010 07:00 13.1 C 96 % 1024.8 hPa 0.8 l/m 0.1 km/h (0 Bft) W-NW 0.00 h 11 W/m 12.4 C 13.1 C 0.6 km/h (0 Bft)
13.09.2010 08:00 13.4 C 97 % 1025.1 hPa 1.8 l/m 0.0 km/h (0 Bft) N 0.00 h 39 W/m 12.9 C 13.4 C 0.1 km/h (0 Bft)
13.09.2010 09:00 13.8 C 98 % 1025.6 hPa 0.0 l/m 0.7 km/h (0 Bft) W 0.07 h 142 W/m 13.5 C 13.8 C 1.7 km/h (1 Bft)
13.09.2010 10:00 15.0 C 94 % 1026.2 hPa 0.0 l/m 1.4 km/h (1 Bft) W 0.82 h 461 W/m 14.1 C 15.0 C 3.2 km/h (1 Bft)
13.09.2010 11:00 16.7 C 87 % 1026.2 hPa 0.0 l/m 1.3 km/h (1 Bft) W-SW 0.72 h 529 W/m 14.5 C 16.7 C 3.1 km/h (1 Bft)
13.09.2010 12:00 17.2 C 80 % 1026.0 hPa 0.0 l/m 1.3 km/h (1 Bft) W 0.55 h 510 W/m 13.7 C 17.2 C 3.2 km/h (1 Bft)
13.09.2010 13:00 16.0 C 82 % 1025.8 hPa 0.0 l/m 2.5 km/h (1 Bft) W-NW 0.00 h 123 W/m 12.9 C 16.0 C 4.8 km/h (1 Bft)
13.09.2010 14:00 17.5 C 77 % 1025.7 hPa 0.0 l/m 2.9 km/h (1 Bft) W-NW 0.40 h 446 W/m 13.3 C 17.5 C 5.0 km/h (1 Bft)
13.09.2010 15:00 19.0 C 64 % 1025.7 hPa 0.0 l/m 5.2 km/h (1 Bft) W 0.55 h 496 W/m 12.0 C 19.0 C 8.4 km/h (2 Bft)
13.09.2010 16:00 18.1 C 67 % 1025.9 hPa 0.0 l/m 4.4 km/h (1 Bft) SO 0.40 h 283 W/m 11.8 C 18.1 C 7.8 km/h (2 Bft)
13.09.2010 17:00 17.7 C 71 % 1026.0 hPa 0.0 l/m 2.0 km/h (1 Bft) SO 0.42 h 183 W/m 12.4 C 17.7 C 4.8 km/h (1 Bft)
13.09.2010 18:00 16.6 C 74 % 1026.3 hPa 0.0 l/m 1.7 km/h (1 Bft) S-SO 0.00 h 40 W/m 12.0 C 16.6 C 3.2 km/h (1 Bft)
13.09.2010 19:00 14.9 C 82 % 1026.6 hPa 0.0 l/m 4.1 km/h (1 Bft) O-SO 0.08 h 18 W/m 11.9 C 14.9 C 5.8 km/h (2 Bft)
13.09.2010 20:00 14.2 C 88 % 1026.8 hPa 0.0 l/m 0.5 km/h (0 Bft) O-SO 0.00 h 0 W/m 12.2 C 14.2 C 1.5 km/h (1 Bft)
13.09.2010 21:00 13.5 C 89 % 1027.2 hPa 0.0 l/m 0.2 km/h (0 Bft) O-SO 0.00 h 0 W/m 11.8 C 13.5 C 1.0 km/h (0 Bft)
13.09.2010 22:00 12.5 C 91 % 1027.6 hPa 0.0 l/m 0.6 km/h (0 Bft) W 0.00 h 0 W/m 11.2 C 12.5 C 1.2 km/h (1 Bft)
13.09.2010 23:00 11.4 C 93 % 1027.8 hPa 0.0 l/m 0.0 km/h (0 Bft) N 0.00 h 0 W/m 10.3 C 11.4 C 0.3 km/h (0 Bft)
14.09.2010 00:00 10.2 C 94 % 1027.7 hPa 0.0 l/m 0.3 km/h (0 Bft) W 0.00 h 0 W/m 9.4 C 10.2 C 0.6 km/h (0 Bft)
14.09.2010 01:00 9.4 C 94 % 1027.8 hPa 0.0 l/m 0.4 km/h (0 Bft) S 0.00 h 0 W/m 8.5 C 9.4 C 0.9 km/h (0 Bft)
14.09.2010 02:00 8.8 C 95 % 1027.5 hPa 0.0 l/m 1.1 km/h (1 Bft) S 0.00 h 0 W/m 8.0 C 8.8 C 2.2 km/h (1 Bft)
14.09.2010 03:00 8.4 C 96 % 1027.1 hPa 0.0 l/m 0.2 km/h (0 Bft) S 0.00 h 0 W/m 7.8 C 8.4 C 0.7 km/h (0 Bft)
14.09.2010 04:00 7.9 C 97 % 1027.1 hPa 0.0 l/m 0.4 km/h (0 Bft) S 0.00 h 0 W/m 7.4 C 7.9 C 1.2 km/h (1 Bft)
14.09.2010 05:00 7.6 C 97 % 1027.2 hPa 0.0 l/m 0.2 km/h (0 Bft) S 0.00 h 0 W/m 7.2 C 7.6 C 0.9 km/h (0 Bft)
14.09.2010 06:00 7.5 C 97 % 1027.4 hPa 0.0 l/m 0.7 km/h (0 Bft) S 0.00 h 5 W/m 7.0 C 7.5 C 1.6 km/h (1 Bft)
14.09.2010 07:00 8.2 C 98 % 1027.6 hPa 0.0 l/m 0.4 km/h (0 Bft) S 0.13 h 18 W/m 7.9 C 8.2 C 1.1 km/h (1 Bft)
14.09.2010 08:00 9.1 C 97 % 1027.6 hPa 0.2 l/m 0.1 km/h (0 Bft) S 0.00 h 73 W/m 8.6 C 9.1 C 0.6 km/h (0 Bft)
14.09.2010 09:00 10.3 C 96 % 1027.7 hPa 0.0 l/m 0.5 km/h (0 Bft) S 0.00 h 131 W/m 9.6 C 10.3 C 1.6 km/h (1 Bft)
14.09.2010 10:00 12.6 C 92 % 1027.3 hPa 0.0 l/m 1.4 km/h (1 Bft) SW 0.35 h 275 W/m 11.2 C 12.6 C 3.7 km/h (1 Bft)
14.09.2010 11:00 14.6 C 85 % 1027.2 hPa 0.0 l/m 2.6 km/h (1 Bft) S-SO 1.00 h 490 W/m 12.1 C 14.6 C 5.5 km/h (1 Bft)
14.09.2010 12:00 16.0 C 81 % 1026.3 hPa 0.0 l/m 2.3 km/h (1 Bft) S-SO 0.57 h 402 W/m 12.7 C 16.0 C 4.9 km/h (1 Bft)
14.09.2010 13:00 17.4 C 76 % 1025.8 hPa 0.0 l/m 2.9 km/h (1 Bft) S-SO 0.90 h 466 W/m 13.1 C 17.4 C 5.8 km/h (2 Bft)
14.09.2010 14:00 18.6 C 72 % 1024.7 hPa 0.0 l/m 2.3 km/h (1 Bft) S-SO 0.80 h 523 W/m 13.4 C 18.6 C 5.2 km/h (1 Bft)
14.09.2010 15:00 19.7 C 68 % 1023.8 hPa 0.0 l/m 2.6 km/h (1 Bft) S-SO 0.73 h 411 W/m 13.6 C 19.7 C 5.8 km/h (2 Bft)
14.09.2010 16:00 20.5 C 66 % 1022.9 hPa 0.0 l/m 5.2 km/h (1 Bft) W 1.00 h 417 W/m 13.8 C 20.5 C 7.5 km/h (2 Bft)
14.09.2010 17:00 20.3 C 62 % 1022.5 hPa 0.0 l/m 6.3 km/h (2 Bft) W-NW 0.87 h 272 W/m 12.6 C 20.3 C 9.6 km/h (2 Bft)
14.09.2010 18:00 18.7 C 66 % 1022.0 hPa 0.0 l/m 2.0 km/h (1 Bft) W 0.00 h 54 W/m 12.2 C 18.7 C 3.7 km/h (1 Bft)
14.09.2010 19:00 16.7 C 77 % 1021.8 hPa 0.0 l/m 0.4 km/h (0 Bft) S-SO 0.00 h 10 W/m 12.7 C 16.7 C 1.2 km/h (1 Bft)
14.09.2010 20:00 15.2 C 84 % 1021.9 hPa 0.0 l/m 1.4 km/h (1 Bft) SO 0.00 h 0 W/m 12.5 C 15.2 C 2.8 km/h (1 Bft)
14.09.2010 21:00 14.0 C 89 % 1021.9 hPa 0.0 l/m 3.2 km/h (1 Bft) O-SO 0.00 h 0 W/m 12.2 C 14.0 C 4.6 km/h (1 Bft)
14.09.2010 22:00 13.5 C 90 % 1021.8 hPa 0.0 l/m 1.8 km/h (1 Bft) O-SO 0.00 h 0 W/m 11.9 C 13.5 C 3.0 km/h (1 Bft)
14.09.2010 23:00 13.2 C 90 % 1021.6 hPa 0.0 l/m 1.6 km/h (1 Bft) S-SO 0.00 h 0 W/m 11.7 C 13.2 C 3.2 km/h (1 Bft)
15.09.2010 00:00 13.6 C 89 % 1020.8 hPa 0.0 l/m 2.1 km/h (1 Bft) S-SO 0.00 h 0 W/m 11.8 C 13.6 C 1.5 km/h (1 Bft)
15.09.2010 01:00 13.0 C 91 % 1020.1 hPa 0.0 l/m 0.4 km/h (0 Bft) N 0.00 h 0 W/m 11.6 C 13.0 C 0.2 km/h (0 Bft)
15.09.2010 02:00 12.7 C 90 % 1019.6 hPa 0.0 l/m 5.2 km/h (1 Bft) S-SO 0.00 h 0 W/m 11.0 C 12.7 C 8.7 km/h (2 Bft)
15.09.2010 03:00 12.1 C 91 % 1019.0 hPa 0.0 l/m 5.0 km/h (1 Bft) S-SO 0.00 h 0 W/m 10.6 C 12.1 C 7.7 km/h (2 Bft)
15.09.2010 04:00 11.5 C 92 % 1018.5 hPa 0.0 l/m 1.9 km/h (1 Bft) S-SO 0.00 h 0 W/m 10.2 C 11.5 C 3.5 km/h (1 Bft)
15.09.2010 05:00 11.5 C 92 % 1017.8 hPa 0.0 l/m 1.8 km/h (1 Bft) S-SO 0.00 h 0 W/m 10.2 C 11.5 C 3.4 km/h (1 Bft)
15.09.2010 06:00 11.6 C 92 % 1017.7 hPa 0.0 l/m 2.0 km/h (1 Bft) S-SO 0.00 h 0 W/m 10.4 C 11.6 C 4.4 km/h (1 Bft)
15.09.2010 07:00 11.7 C 92 % 1017.7 hPa 0.0 l/m 3.6 km/h (1 Bft) S-SO 0.00 h 26 W/m 10.5 C 11.7 C 6.4 km/h (2 Bft)
15.09.2010 08:00 12.5 C 92 % 1017.9 hPa 0.0 l/m 1.3 km/h (1 Bft) SO 0.00 h 93 W/m 11.1 C 12.5 C 3.4 km/h (1 Bft)
15.09.2010 09:00 14.7 C 86 % 1017.7 hPa 0.0 l/m 2.5 km/h (1 Bft) S-SO 0.60 h 251 W/m 12.4 C 14.7 C 5.4 km/h (1 Bft)
15.09.2010 10:00 15.7 C 81 % 1017.6 hPa 0.0 l/m 4.5 km/h (1 Bft) S-SO 0.00 h 219 W/m 12.5 C 15.7 C 8.7 km/h (2 Bft)
15.09.2010 11:00 16.6 C 79 % 1017.1 hPa 0.0 l/m 5.4 km/h (1 Bft) S-SO 0.08 h 285 W/m 12.9 C 16.6 C 10.0 km/h (2 Bft)
15.09.2010 12:00 17.1 C 78 % 1016.4 hPa 0.0 l/m 4.7 km/h (1 Bft) S-SO 0.00 h 252 W/m 13.2 C 17.1 C 9.6 km/h (2 Bft)
15.09.2010 13:00 17.6 C 80 % 1015.6 hPa 0.0 l/m 1.8 km/h (1 Bft) SW 0.00 h 216 W/m 14.1 C 17.6 C 4.6 km/h (1 Bft)
15.09.2010 14:00 17.3 C 84 % 1015.3 hPa 0.0 l/m 0.7 km/h (0 Bft) S-SO 0.00 h 142 W/m 14.5 C 17.3 C 2.7 km/h (1 Bft)
15.09.2010 15:00 16.8 C 89 % 1015.0 hPa 0.0 l/m 0.3 km/h (0 Bft) S-SO 0.00 h 93 W/m 14.9 C 16.8 C 1.2 km/h (1 Bft)
15.09.2010 16:00 16.7 C 90 % 1014.4 hPa 0.0 l/m 0.2 km/h (0 Bft) W 0.00 h 88 W/m 15.1 C 16.7 C 1.1 km/h (1 Bft)
15.09.2010 17:00 16.3 C 86 % 1014.0 hPa 0.0 l/m 2.7 km/h (1 Bft) W 0.00 h 64 W/m 13.8 C 16.3 C 5.2 km/h (1 Bft)
15.09.2010 18:00 16.4 C 75 % 1013.5 hPa 0.0 l/m 6.7 km/h (2 Bft) W-NW 0.00 h 29 W/m 11.9 C 16.4 C 10.6 km/h (2 Bft)
15.09.2010 19:00 15.9 C 72 % 1013.7 hPa 0.0 l/m 11.0 km/h (2 Bft) W 0.00 h 13 W/m 10.9 C 15.9 C 16.6 km/h (3 Bft)
15.09.2010 20:00 15.1 C 79 % 1013.7 hPa 0.0 l/m 10.6 km/h (2 Bft) W 0.00 h 0 W/m 11.6 C 15.1 C 16.5 km/h (3 Bft)
15.09.2010 21:00 15.2 C 80 % 1013.8 hPa 0.0 l/m 9.8 km/h (2 Bft) W 0.00 h 0 W/m 11.8 C 15.2 C 15.5 km/h (3 Bft)
15.09.2010 22:00 15.1 C 81 % 1013.6 hPa 0.0 l/m 8.7 km/h (2 Bft) W 0.00 h 0 W/m 11.9 C 15.1 C 14.2 km/h (3 Bft)
15.09.2010 23:00 14.5 C 87 % 1013.8 hPa 0.6 l/m 8.7 km/h (2 Bft) W 0.00 h 0 W/m 12.3 C 14.5 C 14.2 km/h (3 Bft)
16.09.2010 00:00 13.2 C 96 % 1014.0 hPa 1.6 l/m 7.9 km/h (2 Bft) W-NW 0.00 h 0 W/m 12.5 C 13.2 C 11.9 km/h (2 Bft)
16.09.2010 01:00 12.8 C 97 % 1014.0 hPa 0.2 l/m 7.0 km/h (2 Bft) W 0.00 h 0 W/m 12.3 C 12.8 C 11.2 km/h (2 Bft)
16.09.2010 02:00 12.6 C 97 % 1013.6 hPa 0.2 l/m 6.5 km/h (2 Bft) W 0.00 h 0 W/m 12.2 C 12.6 C 10.3 km/h (2 Bft)
16.09.2010 03:00 12.7 C 98 % 1013.3 hPa 0.4 l/m 1.9 km/h (1 Bft) W-NW 0.00 h 0 W/m 12.4 C 12.7 C 3.7 km/h (1 Bft)
16.09.2010 04:00 12.8 C 98 % 1013.3 hPa 0.0 l/m 4.6 km/h (1 Bft) W-NW 0.00 h 0 W/m 12.5 C 12.8 C 7.1 km/h (2 Bft)
16.09.2010 05:00 12.8 C 98 % 1013.3 hPa 0.0 l/m 4.3 km/h (1 Bft) W 0.00 h 0 W/m 12.5 C 12.8 C 7.0 km/h (2 Bft)
16.09.2010 06:00 12.9 C 98 % 1013.3 hPa 0.2 l/m 4.0 km/h (1 Bft) W 0.00 h 0 W/m 12.6 C 12.9 C 6.5 km/h (2 Bft)
16.09.2010 07:00 12.7 C 98 % 1013.9 hPa 0.0 l/m 5.6 km/h (1 Bft) W 0.00 h 21 W/m 12.3 C 12.7 C 9.2 km/h (2 Bft)
16.09.2010 08:00 12.5 C 96 % 1014.2 hPa 0.0 l/m 9.2 km/h (2 Bft) W 0.00 h 51 W/m 11.9 C 12.5 C 14.2 km/h (3 Bft)
16.09.2010 09:00 12.7 C 93 % 1014.2 hPa 0.0 l/m 11.3 km/h (2 Bft) W 0.00 h 97 W/m 11.6 C 12.7 C 17.6 km/h (3 Bft)
16.09.2010 10:00 13.1 C 90 % 1014.7 hPa 0.0 l/m 9.0 km/h (2 Bft) W 0.00 h 135 W/m 11.4 C 13.1 C 13.9 km/h (3 Bft)
16.09.2010 11:00 13.4 C 84 % 1014.9 hPa 0.0 l/m 9.0 km/h (2 Bft) W 0.00 h 227 W/m 10.7 C 13.4 C 14.0 km/h (3 Bft)
16.09.2010 12:00 13.9 C 79 % 1014.7 hPa 0.0 l/m 10.0 km/h (2 Bft) W 0.00 h 221 W/m 10.3 C 13.9 C 16.2 km/h (3 Bft)
16.09.2010 13:00 15.0 C 77 % 1014.3 hPa 0.0 l/m 8.9 km/h (2 Bft) W 0.23 h 320 W/m 11.1 C 15.0 C 14.3 km/h (3 Bft)
16.09.2010 14:00 16.0 C 73 % 1013.7 hPa 0.0 l/m 9.5 km/h (2 Bft) W 0.37 h 408 W/m 11.1 C 16.0 C 15.2 km/h (3 Bft)
16.09.2010 15:00 16.4 C 72 % 1013.1 hPa 0.0 l/m 7.2 km/h (2 Bft) W 0.32 h 291 W/m 11.3 C 16.4 C 11.5 km/h (2 Bft)
16.09.2010 16:00 16.5 C 72 % 1012.8 hPa 0.0 l/m 4.8 km/h (1 Bft) W 0.27 h 236 W/m 11.5 C 16.5 C 8.3 km/h (2 Bft)
16.09.2010 17:00 16.4 C 72 % 1012.6 hPa 0.0 l/m 4.2 km/h (1 Bft) W 0.30 h 185 W/m 11.4 C 16.4 C 7.7 km/h (2 Bft)
16.09.2010 18:00 15.8 C 75 % 1012.4 hPa 0.0 l/m 2.5 km/h (1 Bft) W 0.22 h 90 W/m 11.4 C 15.8 C 4.7 km/h (1 Bft)
16.09.2010 19:00 14.2 C 80 % 1012.6 hPa 0.0 l/m 1.4 km/h (1 Bft) W-SW 0.22 h 24 W/m 10.8 C 14.2 C 3.4 km/h (1 Bft)
16.09.2010 20:00 13.7 C 81 % 1013.0 hPa 0.0 l/m 0.3 km/h (0 Bft) W-SW 0.00 h 0 W/m 10.6 C 13.7 C 1.7 km/h (1 Bft)
16.09.2010 21:00 13.5 C 83 % 1013.4 hPa 0.0 l/m 0.2 km/h (0 Bft) S-SO 0.00 h 0 W/m 10.5 C 13.5 C 0.7 km/h (0 Bft)
16.09.2010 22:00 13.0 C 85 % 1013.4 hPa 0.0 l/m 1.6 km/h (1 Bft) S-SO 0.00 h 0 W/m 10.5 C 13.0 C 3.4 km/h (1 Bft)
16.09.2010 23:00 12.3 C 88 % 1013.4 hPa 0.0 l/m 1.1 km/h (0 Bft) SO 0.00 h 0 W/m 10.5 C 12.3 C 2.2 km/h (1 Bft)
17.09.2010 00:00 12.1 C 89 % 1013.3 hPa 0.0 l/m 0.5 km/h (0 Bft) SO 0.00 h 0 W/m 10.4 C 12.1 C 1.5 km/h (1 Bft)
17.09.2010 01:00 11.3 C 93 % 1013.0 hPa 0.0 l/m 0.3 km/h (0 Bft) SO 0.00 h 0 W/m 10.3 C 11.3 C 0.6 km/h (0 Bft)
17.09.2010 02:00 11.3 C 95 % 1013.0 hPa 0.0 l/m 0.0 km/h (0 Bft) N 0.00 h 0 W/m 10.5 C 11.3 C 0.1 km/h (0 Bft)
17.09.2010 03:00 11.2 C 95 % 1012.8 hPa 0.0 l/m 0.0 km/h (0 Bft) N 0.00 h 0 W/m 10.5 C 11.2 C 0.0 km/h (0 Bft)
17.09.2010 04:00 11.3 C 96 % 1012.6 hPa 0.0 l/m 0.7 km/h (0 Bft) SO 0.00 h 0 W/m 10.6 C 11.3 C 1.4 km/h (1 Bft)
17.09.2010 05:00 11.7 C 94 % 1013.0 hPa 0.0 l/m 1.9 km/h (1 Bft) SO 0.00 h 0 W/m 10.7 C 11.7 C 3.4 km/h (1 Bft)
17.09.2010 06:00 12.1 C 87 % 1013.4 hPa 0.0 l/m 4.2 km/h (1 Bft) W-NW 0.00 h 0 W/m 10.1 C 12.1 C 7.3 km/h (2 Bft)
17.09.2010 07:00 11.7 C 88 % 1014.0 hPa 0.0 l/m 3.4 km/h (1 Bft) W-NW 0.00 h 22 W/m 9.8 C 11.7 C 6.0 km/h (2 Bft)
17.09.2010 08:00 12.0 C 87 % 1014.3 hPa 0.0 l/m 0.9 km/h (0 Bft) W-NW 0.00 h 64 W/m 10.0 C 12.0 C 2.4 km/h (1 Bft)
17.09.2010 09:00 12.8 C 86 % 1014.7 hPa 0.0 l/m 1.0 km/h (0 Bft) N 0.00 h 157 W/m 10.5 C 12.8 C 1.9 km/h (1 Bft)
17.09.2010 10:00 13.3 C 82 % 1015.1 hPa 0.0 l/m 1.7 km/h (1 Bft) W-NW 0.00 h 227 W/m 10.3 C 13.3 C 1.5 km/h (1 Bft)
17.09.2010 11:00 14.2 C 81 % 1015.3 hPa 0.0 l/m 2.5 km/h (1 Bft) W 0.12 h 265 W/m 11.0 C 14.2 C 4.6 km/h (1 Bft)
17.09.2010 12:00 15.5 C 77 % 1014.8 hPa 0.0 l/m 2.3 km/h (1 Bft) S-SO 0.57 h 376 W/m 11.4 C 15.5 C 4.6 km/h (1 Bft)
17.09.2010 13:00 16.7 C 72 % 1014.7 hPa 0.0 l/m 2.8 km/h (1 Bft) S-SW 0.82 h 659 W/m 11.7 C 16.7 C 3.9 km/h (1 Bft)
17.09.2010 14:00 17.4 C 69 % 1014.5 hPa 0.0 l/m 2.5 km/h (1 Bft) W-SW 0.43 h 500 W/m 11.5 C 17.4 C 4.4 km/h (1 Bft)
17.09.2010 15:00 18.9 C 59 % 1013.9 hPa 0.0 l/m 7.3 km/h (2 Bft) W 0.47 h 309 W/m 10.6 C 18.9 C 11.7 km/h (2 Bft)
17.09.2010 16:00 19.1 C 54 % 1013.9 hPa 0.0 l/m 6.5 km/h (2 Bft) W 0.92 h 446 W/m 9.4 C 19.1 C 10.3 km/h (2 Bft)
17.09.2010 17:00 19.1 C 53 % 1013.8 hPa 0.0 l/m 6.1 km/h (2 Bft) W 0.88 h 280 W/m 9.4 C 19.1 C 9.3 km/h (2 Bft)
17.09.2010 18:00 17.6 C 57 % 1014.1 hPa 0.0 l/m 7.6 km/h (2 Bft) W 0.17 h 61 W/m 8.9 C 17.6 C 11.9 km/h (2 Bft)
17.09.2010 19:00 16.0 C 66 % 1014.6 hPa 0.0 l/m 3.2 km/h (1 Bft) W 0.43 h 27 W/m 9.5 C 16.0 C 5.3 km/h (1 Bft)
17.09.2010 20:00 13.9 C 76 % 1015.5 hPa 0.0 l/m 1.7 km/h (1 Bft) SO 0.00 h 0 W/m 9.6 C 13.9 C 2.9 km/h (1 Bft)
17.09.2010 21:00 12.9 C 82 % 1016.0 hPa 0.0 l/m 1.0 km/h (0 Bft) O-SO 0.00 h 0 W/m 10.0 C 12.9 C 1.8 km/h (1 Bft)
17.09.2010 22:00 12.2 C 86 % 1016.5 hPa 0.0 l/m 0.0 km/h (0 Bft) O-SO 0.00 h 0 W/m 9.8 C 12.2 C 0.2 km/h (0 Bft)
17.09.2010 23:00 11.4 C 88 % 1016.8 hPa 0.0 l/m 0.4 km/h (0 Bft) O-SO 0.00 h 0 W/m 9.4 C 11.4 C 0.9 km/h (0 Bft)
18.09.2010 00:00 10.7 C 89 % 1016.8 hPa 0.0 l/m 0.0 km/h (0 Bft) N 0.00 h 0 W/m 8.9 C 10.7 C 0.1 km/h (0 Bft)
18.09.2010 01:00 10.2 C 90 % 1016.8 hPa 0.0 l/m 0.0 km/h (0 Bft) N 0.00 h 0 W/m 8.7 C 10.2 C 0.0 km/h (0 Bft)
18.09.2010 02:00 9.4 C 92 % 1016.8 hPa 0.0 l/m 0.0 km/h (0 Bft) N 0.00 h 0 W/m 8.1 C 9.4 C 0.0 km/h (0 Bft)
18.09.2010 03:00 8.5 C 94 % 1016.8 hPa 0.0 l/m 0.0 km/h (0 Bft) N 0.00 h 0 W/m 7.6 C 8.5 C 0.0 km/h (0 Bft)
18.09.2010 04:00 7.8 C 95 % 1016.5 hPa 0.0 l/m 0.0 km/h (0 Bft) N 0.00 h 0 W/m 7.0 C 7.8 C 0.0 km/h (0 Bft)
18.09.2010 05:00 7.0 C 95 % 1016.7 hPa 0.0 l/m 0.0 km/h (0 Bft) N 0.00 h 0 W/m 6.3 C 7.0 C 0.0 km/h (0 Bft)
18.09.2010 06:00 6.6 C 96 % 1017.1 hPa 0.0 l/m 0.0 km/h (0 Bft) N 0.00 h 0 W/m 6.1 C 6.6 C 0.0 km/h (0 Bft)
18.09.2010 07:00 6.5 C 96 % 1017.5 hPa 0.0 l/m 0.0 km/h (0 Bft) N 0.03 h 21 W/m 5.9 C 6.5 C 0.0 km/h (0 Bft)
18.09.2010 08:00 8.2 C 95 % 1017.5 hPa 0.0 l/m 0.0 km/h (0 Bft) N 0.95 h 148 W/m 7.4 C 8.2 C 0.0 km/h (0 Bft)
18.09.2010 09:00 10.8 C 87 % 1017.6 hPa 0.0 l/m 0.0 km/h (0 Bft) N 1.00 h 301 W/m 8.7 C 10.8 C 0.0 km/h (0 Bft)
18.09.2010 10:00 12.8 C 80 % 1017.3 hPa 0.0 l/m 0.0 km/h (0 Bft) N 0.98 h 442 W/m 9.5 C 12.8 C 0.0 km/h (0 Bft)
18.09.2010 11:00 15.4 C 69 % 1016.7 hPa 0.0 l/m 1.7 km/h (1 Bft) SO 0.98 h 580 W/m 9.6 C 15.4 C 3.7 km/h (1 Bft)
18.09.2010 12:00 16.1 C 66 % 1016.4 hPa 0.0 l/m 2.8 km/h (1 Bft) O-SO 0.97 h 506 W/m 9.7 C 16.1 C 5.5 km/h (1 Bft)
18.09.2010 13:00 17.5 C 62 % 1016.0 hPa 0.0 l/m 3.1 km/h (1 Bft) SO 0.92 h 636 W/m 10.0 C 17.5 C 6.3 km/h (2 Bft)
18.09.2010 14:00 16.9 C 63 % 1015.6 hPa 0.0 l/m 1.5 km/h (1 Bft) W 0.40 h 377 W/m 9.7 C 16.9 C 3.5 km/h (1 Bft)
18.09.2010 15:00 17.0 C 65 % 1015.3 hPa 0.0 l/m 5.2 km/h (1 Bft) N-NW 0.18 h 251 W/m 10.4 C 17.0 C 8.3 km/h (2 Bft)
18.09.2010 16:00 17.1 C 67 % 1015.4 hPa 0.0 l/m 4.0 km/h (1 Bft) W 0.40 h 263 W/m 11.0 C 17.1 C 6.9 km/h (2 Bft)
18.09.2010 17:00 16.9 C 65 % 1015.5 hPa 0.0 l/m 4.9 km/h (1 Bft) W-NW 0.22 h 185 W/m 10.4 C 16.9 C 8.0 km/h (2 Bft)
18.09.2010 18:00 15.7 C 65 % 1015.8 hPa 0.0 l/m 5.6 km/h (1 Bft) W-NW 0.00 h 74 W/m 9.1 C 15.7 C 8.9 km/h (2 Bft)
18.09.2010 19:00 14.4 C 71 % 1016.3 hPa 0.0 l/m 1.8 km/h (1 Bft) W-NW 0.15 h 16 W/m 9.3 C 14.4 C 3.7 km/h (1 Bft)
18.09.2010 20:00 13.5 C 73 % 1016.8 hPa 0.0 l/m 1.1 km/h (1 Bft) N 0.00 h 0 W/m 8.7 C 13.5 C 2.8 km/h (1 Bft)
18.09.2010 21:00 12.7 C 78 % 1017.1 hPa 0.0 l/m 0.0 km/h (0 Bft) N-NW 0.00 h 0 W/m 9.0 C 12.7 C 0.3 km/h (0 Bft)
18.09.2010 22:00 12.5 C 81 % 1017.4 hPa 0.0 l/m 0.2 km/h (0 Bft) NO 0.00 h 0 W/m 9.3 C 12.5 C 0.8 km/h (0 Bft)
18.09.2010 23:00 12.2 C 81 % 1017.4 hPa 0.0 l/m 0.4 km/h (0 Bft) N-NW 0.00 h 0 W/m 9.0 C 12.2 C 1.4 km/h (1 Bft)
19.09.2010 00:00 11.6 C 85 % 1017.4 hPa 0.0 l/m 1.5 km/h (1 Bft) N 0.00 h 0 W/m 9.2 C 11.6 C 2.8 km/h (1 Bft)
19.09.2010 01:00 11.7 C 78 % 1017.3 hPa 0.0 l/m 1.4 km/h (1 Bft) N 0.00 h 0 W/m 8.0 C 11.7 C 3.6 km/h (1 Bft)
19.09.2010 02:00 10.5 C 87 % 1017.3 hPa 0.0 l/m 0.8 km/h (0 Bft) W-NW 0.00 h 0 W/m 8.5 C 10.5 C 2.3 km/h (1 Bft)
19.09.2010 03:00 10.4 C 85 % 1017.4 hPa 0.0 l/m 0.6 km/h (0 Bft) NW 0.00 h 0 W/m 7.9 C 10.4 C 1.9 km/h (1 Bft)
19.09.2010 04:00 9.5 C 91 % 1017.4 hPa 0.0 l/m 1.0 km/h (0 Bft) W 0.00 h 0 W/m 8.1 C 9.5 C 2.8 km/h (1 Bft)
19.09.2010 05:00 8.9 C 94 % 1017.7 hPa 0.0 l/m 0.0 km/h (0 Bft) W-NW 0.00 h 0 W/m 8.0 C 8.9 C 0.2 km/h (0 Bft)
19.09.2010 06:00 8.6 C 95 % 1018.1 hPa 0.0 l/m 0.3 km/h (0 Bft) W-NW 0.00 h 0 W/m 7.9 C 8.6 C 1.2 km/h (1 Bft)
19.09.2010 07:00 8.3 C 95 % 1018.8 hPa 0.0 l/m 0.3 km/h (0 Bft) NW 0.05 h 25 W/m 7.5 C 8.3 C 1.3 km/h (1 Bft)
19.09.2010 08:00 9.3 C 92 % 1019.3 hPa 0.0 l/m 0.3 km/h (0 Bft) NO 0.88 h 140 W/m 8.1 C 9.3 C 0.8 km/h (0 Bft)
19.09.2010 09:00 11.5 C 84 % 1019.3 hPa 0.0 l/m 1.7 km/h (1 Bft) N 1.00 h 296 W/m 8.9 C 11.5 C 3.5 km/h (1 Bft)
19.09.2010 10:00 13.2 C 78 % 1019.4 hPa 0.0 l/m 3.1 km/h (1 Bft) W 1.00 h 449 W/m 9.4 C 13.2 C 5.3 km/h (1 Bft)
19.09.2010 11:00 15.1 C 70 % 1019.2 hPa 0.0 l/m 2.2 km/h (1 Bft) W-NW 1.00 h 568 W/m 9.6 C 15.1 C 4.8 km/h (1 Bft)
19.09.2010 12:00 16.4 C 64 % 1018.9 hPa 0.0 l/m 2.2 km/h (1 Bft) NW 1.00 h 640 W/m 9.7 C 16.4 C 4.5 km/h (1 Bft)
19.09.2010 13:00 17.3 C 61 % 1018.4 hPa 0.0 l/m 1.9 km/h (1 Bft) W 1.00 h 668 W/m 9.6 C 17.3 C 4.2 km/h (1 Bft)
19.09.2010 14:00 17.8 C 56 % 1018.0 hPa 0.0 l/m 3.4 km/h (1 Bft) W-NW 0.90 h 588 W/m 9.0 C 17.8 C 5.8 km/h (2 Bft)
19.09.2010 15:00 18.5 C 54 % 1017.6 hPa 0.0 l/m 3.4 km/h (1 Bft) W-NW 0.48 h 287 W/m 8.9 C 18.5 C 5.8 km/h (2 Bft)
19.09.2010 16:00 18.8 C 52 % 1017.5 hPa 0.0 l/m 1.2 km/h (1 Bft) SO 1.00 h 425 W/m 8.9 C 18.8 C 3.2 km/h (1 Bft)
19.09.2010 17:00 18.7 C 54 % 1017.3 hPa 0.0 l/m 2.1 km/h (1 Bft) W 0.97 h 267 W/m 9.3 C 18.7 C 4.1 km/h (1 Bft)
19.09.2010 18:00 17.3 C 59 % 1017.5 hPa 0.0 l/m 2.5 km/h (1 Bft) W 0.00 h 37 W/m 9.1 C 17.3 C 4.4 km/h (1 Bft)
19.09.2010 19:00 15.1 C 70 % 1018.0 hPa 0.0 l/m 0.5 km/h (0 Bft) W-NW 0.12 h 15 W/m 9.6 C 15.1 C 1.7 km/h (1 Bft)
19.09.2010 20:00 13.0 C 80 % 1018.5 hPa 0.0 l/m 3.5 km/h (1 Bft) O-SO 0.00 h 0 W/m 9.5 C 13.0 C 4.8 km/h (1 Bft)
19.09.2010 21:00 11.3 C 86 % 1019.2 hPa 0.0 l/m 1.7 km/h (1 Bft) O-SO 0.00 h 0 W/m 9.1 C 11.3 C 2.8 km/h (1 Bft)
19.09.2010 22:00 10.2 C 90 % 1019.3 hPa 0.0 l/m 1.2 km/h (1 Bft) O 0.00 h 0 W/m 8.6 C 10.2 C 2.0 km/h (1 Bft)
19.09.2010 23:00 9.4 C 92 % 1019.2 hPa 0.0 l/m 2.1 km/h (1 Bft) O 0.00 h 0 W/m 8.2 C 9.4 C 3.2 km/h (1 Bft)
Min-Datum _ 18.09.10 17.09.10 16.09.10 - 13.09.10 - - - 18.09.10 18.09.10 13.09.10
_ Min-Zeit 06:45 16:34 18:15 - 00:13 - - - 06:45 06:45 00:31
Minimum _ 6.1 C 47 % 1012.4 hPa - 0.0 km/h (0 Bft) - - - 5.4 C 6.1 C 0.0 km/h (0 Bft)
Max-Datum _ 14.09.10 14.09.10 13.09.10 13.09.10 15.09.10 - 13.09.10 17.09.10 13.09.10 14.09.10 15.09.10
_ Max-Zeit 16:37 06:00 23:00 08:02 19:54 - 09:40 13:46 11:49 16:37 19:54
Maximum _ 21.2 C 100 % 1027.9 hPa 1.8 l/m 23.2 km/h
W (4 Bft)
- 0.02 h 911 W/m 15.8 C 21.2 C 36.5 km/h
W-NW (5 Bft)
Durchschnitt _ 13.7 C 83 % 1018.5 hPa #6.4 l/m 2.6 km/h (1 Bft) W #34:20 h 245 W/m 10.7 C 13.7 C 4.7 km/h (1 Bft)
© Kaiko 2010